createdAt,value
2019-03-23T16:15:37.405Z,20.50
2019-03-23T16:20:39.895Z,20.83
2019-03-23T16:25:41.521Z,23.83
2019-03-23T16:30:43.208Z,24.73
2019-03-23T16:35:44.823Z,26.30
2019-03-23T16:40:46.599Z,26.93
2019-03-23T16:45:48.349Z,32.03
2019-03-23T16:50:49.954Z,30.07
2019-03-23T16:55:51.850Z,31.13
2019-03-23T17:00:54.414Z,30.40
2019-03-23T17:05:56.055Z,30.20
2019-03-23T17:10:57.681Z,50.20
2019-03-23T17:15:59.568Z,58.60
2019-03-23T17:21:01.279Z,58.90
2019-03-23T17:26:03.740Z,62.83
2019-03-23T17:31:05.325Z,70.40
2019-03-23T17:36:06.975Z,79.60
2019-03-23T17:41:10.371Z,76.80
2019-03-23T17:46:12.189Z,78.60
2019-03-23T17:51:13.759Z,69.43
2019-03-23T17:56:15.451Z,77.23
2019-03-23T18:01:19.644Z,95.17
2019-03-23T18:06:20.532Z,135.90
2019-03-23T18:11:22.209Z,65.77
2019-03-23T18:16:23.901Z,65.50
2019-03-23T18:21:26.038Z,95.63
2019-03-23T18:26:47.619Z,57.67
2019-03-23T18:31:49.353Z,57.57
2019-03-23T18:36:52.777Z,58.03
2019-03-23T18:41:54.339Z,59.50
2019-03-23T18:46:56.010Z,64.80
2019-03-23T18:51:57.560Z,66.93
2019-03-23T18:56:59.124Z,103.07
2019-03-23T19:02:00.742Z,74.87
2019-03-23T19:07:02.299Z,58.03
2019-03-23T19:12:04.153Z,59.17
2019-03-23T19:17:05.860Z,57.27
2019-03-23T19:22:07.475Z,47.83
2019-03-23T19:27:09.032Z,52.47
2019-03-23T19:32:10.593Z,53.17
2019-03-23T19:37:12.159Z,50.47
2019-03-23T19:42:13.708Z,68.00
2019-03-23T19:47:15.306Z,63.20
2019-03-23T19:52:17.097Z,73.37
2019-03-23T19:57:18.653Z,55.33
2019-03-23T20:02:20.217Z,55.17
2019-03-23T20:07:21.778Z,55.47
2019-03-23T20:12:23.687Z,60.63
2019-03-23T20:17:25.444Z,50.93
2019-03-23T20:22:28.104Z,59.03
2019-03-23T20:27:29.979Z,49.93
2019-03-23T20:32:32.672Z,43.17
2019-03-23T20:37:34.616Z,35.03
2019-03-23T20:42:36.379Z,32.60
2019-03-23T20:47:39.434Z,30.33
2019-03-23T20:52:41.116Z,29.17
2019-03-23T20:57:42.670Z,22.97
2019-03-23T21:02:44.237Z,22.47
2019-03-23T21:07:45.899Z,21.87
2019-03-23T21:12:48.611Z,24.87
2019-03-23T21:17:51.410Z,26.53
2019-03-23T21:22:53.299Z,27.63
2019-03-23T21:27:54.846Z,29.00
2019-03-23T21:32:56.416Z,31.87
2019-03-23T21:37:58.111Z,32.53
2019-03-23T21:42:59.671Z,32.33
2019-03-23T21:48:01.258Z,35.20
2019-03-23T21:53:02.918Z,35.43
2019-03-23T21:58:04.677Z,38.80
2019-03-23T22:03:06.339Z,39.60
2019-03-23T22:08:07.900Z,37.83
2019-03-23T22:13:09.463Z,31.83
2019-03-23T22:18:11.543Z,32.03
2019-03-23T22:23:13.148Z,31.47
2019-03-23T22:28:14.716Z,33.40
2019-03-23T22:33:16.283Z,38.80
2019-03-23T22:38:17.831Z,49.63
2019-03-23T22:43:19.424Z,53.13
2019-03-23T22:48:20.973Z,69.20
2019-03-23T22:53:22.616Z,83.83
2019-03-23T22:58:24.200Z,99.70
2019-03-23T23:03:25.802Z,61.00
2019-03-23T23:08:27.360Z,59.93
2019-03-23T23:13:28.953Z,54.60
2019-03-23T23:18:30.600Z,49.03
2019-03-23T23:23:32.196Z,45.57
2019-03-23T23:28:33.840Z,39.73
2019-03-23T23:33:35.414Z,27.80
2019-03-23T23:38:37.032Z,28.37
2019-03-23T23:43:39.024Z,26.53
2019-03-23T23:48:50.677Z,26.40
2019-03-23T23:53:44.039Z,30.13
2019-03-23T23:58:45.600Z,28.50
